Time;durP1;ratioP1;P1;durP2;ratioP2;P2;SDS_P1;SDS_P2;PMS_P1;PMS_P2;Temp;Humidity;BMP_temperature;BMP_pressure;BME280_temperature;BME280_humidity;BME280_pressure;Samples;Min_cycle;Max_cycle;Signal;HPM_P1;HPM_P2
2021/05/02 00:01:06;;;;;;;12.98;6.00;;;;;;;24.52;45.76;99059.88;5015465;28;20057;-75
2021/05/02 00:03:31;;;;;;;14.77;5.80;;;;;;;24.32;45.93;99031.97;5015439;28;20041;-77
2021/05/02 00:05:57;;;;;;;11.48;4.97;;;;;;;23.99;46.10;98974.16;5015244;28;20113;-76
2021/05/02 00:08:23;;;;;;;15.90;5.57;;;;;;;24.39;45.72;99020.84;5015481;28;20322;-76
2021/05/02 00:10:48;;;;;;;14.30;5.38;;;;;;;24.44;45.72;99022.72;5015218;28;20034;-77
2021/05/02 00:13:14;;;;;;;12.35;5.85;;;;;;;24.50;45.60;99024.28;5015286;28;20032;-75
2021/05/02 00:15:39;;;;;;;12.85;5.60;;;;;;;24.53;44.98;99023.75;5015056;28;20061;-76
2021/05/02 00:18:05;;;;;;;13.27;5.10;;;;;;;24.31;44.90;98980.97;5015247;28;20064;-76
2021/05/02 00:20:30;;;;;;;12.90;4.97;;;;;;;24.57;44.52;99022.09;5015286;28;20057;-74
2021/05/02 00:23:01;;;;;;;13.70;5.05;;;;;;;24.58;44.64;99024.50;5015087;28;20354;-76
2021/05/02 00:25:30;;;;;;;10.63;4.30;;;;;;;24.54;44.39;99011.88;4997741;28;20129;-75
2021/05/02 00:27:56;;;;;;;12.48;4.53;;;;;;;24.49;44.22;99009.19;5014901;28;20085;-77
2021/05/02 00:30:24;;;;;;;11.40;4.68;;;;;;;24.62;43.65;99019.34;5014956;28;20057;-76
2021/05/02 00:32:51;;;;;;;11.13;4.43;;;;;;;24.44;43.45;98995.72;5014895;28;20345;-76
2021/05/02 00:35:19;;;;;;;16.88;4.50;;;;;;;24.39;43.02;98991.16;5015126;28;20033;-76
2021/05/02 00:37:44;;;;;;;13.88;5.63;;;;;;;24.06;43.08;98936.09;5014871;28;20109;-77
2021/05/02 00:40:13;;;;;;;11.45;4.35;;;;;;;24.57;42.73;99014.00;5015074;28;20172;-77
2021/05/02 00:42:46;;;;;;;10.45;4.38;;;;;;;24.54;42.75;99019.97;5017910;28;20034;-77
2021/05/02 00:45:16;;;;;;;11.55;4.63;;;;;;;24.39;42.42;99000.06;5024790;28;20030;-77
2021/05/02 00:47:48;;;;;;;11.38;4.82;;;;;;;24.47;42.24;99012.16;4997342;28;20033;-77
2021/05/02 00:50:17;;;;;;;15.32;5.15;;;;;;;24.27;42.37;98996.13;5014395;28;20030;-76
2021/05/02 00:52:50;;;;;;;14.65;4.82;;;;;;;24.38;42.47;99020.03;5014775;28;20061;-75
2021/05/02 00:55:21;;;;;;;14.02;4.70;;;;;;;24.23;42.55;98997.72;4997458;28;20116;-76
2021/05/02 00:57:56;;;;;;;14.45;4.35;;;;;;;24.27;42.34;98998.81;5014650;28;20026;-77
2021/05/02 01:00:23;;;;;;;11.30;5.05;;;;;;;24.36;42.39;99010.63;5014960;28;20030;-78
2021/05/02 01:02:56;;;;;;;15.48;5.25;;;;;;;24.25;42.59;99000.97;5014672;28;20429;-76
2021/05/02 01:05:23;;;;;;;12.38;4.65;;;;;;;24.35;42.58;99025.19;5014666;28;20029;-73
2021/05/02 01:07:55;;;;;;;14.50;5.05;;;;;;;24.35;42.58;99020.59;5014584;28;20491;-75
2021/05/02 01:10:21;;;;;;;17.08;4.60;;;;;;;24.30;42.44;99007.16;4997241;28;20448;-76
2021/05/02 01:12:51;;;;;;;16.27;4.50;;;;;;;24.29;42.22;99000.16;4997406;28;20122;-76
2021/05/02 01:15:24;;;;;;;12.88;4.65;;;;;;;24.36;42.13;99014.13;5014853;28;20033;-76
2021/05/02 01:17:54;;;;;;;13.88;4.97;;;;;;;24.13;42.16;98973.53;5014562;28;20018;-75
2021/05/02 01:20:20;;;;;;;11.50;4.37;;;;;;;24.27;42.29;99002.31;4997228;28;20022;-77
2021/05/02 01:22:45;;;;;;;12.32;4.57;;;;;;;24.09;42.26;98990.28;5014561;28;20030;-76
2021/05/02 01:25:13;;;;;;;12.65;4.60;;;;;;;24.14;42.27;98986.75;5014487;28;20036;-76
2021/05/02 01:27:39;;;;;;;15.68;4.68;;;;;;;24.23;42.38;99000.44;5014089;28;20120;-76
2021/05/02 01:30:09;;;;;;;16.27;5.38;;;;;;;24.01;42.47;98977.38;5014560;28;20488;-75
2021/05/02 01:32:35;;;;;;;10.02;4.22;;;;;;;24.19;42.60;99008.28;5014502;28;20018;-74
2021/05/02 01:35:02;;;;;;;11.77;4.45;;;;;;;24.09;42.82;99000.25;5014365;28;20050;-76
2021/05/02 01:37:27;;;;;;;15.25;4.75;;;;;;;23.85;42.76;98957.00;5014382;28;20018;-76
2021/05/02 01:39:53;;;;;;;13.85;4.03;;;;;;;24.07;42.98;99000.53;5014301;28;20037;-76
2021/05/02 01:42:19;;;;;;;14.15;4.60;;;;;;;23.83;42.99;98969.94;4981090;28;20026;-75
2021/05/02 01:44:44;;;;;;;15.65;4.78;;;;;;;24.01;42.95;98990.88;5014425;28;20022;-77
2021/05/02 01:47:19;;;;;;;15.73;4.80;;;;;;;23.93;43.04;98977.97;5014354;28;20025;-77
2021/05/02 01:49:49;;;;;;;14.20;4.15;;;;;;;23.97;43.32;98987.13;5014167;28;20025;-77
2021/05/02 01:52:17;;;;;;;15.32;4.65;;;;;;;23.80;43.27;98962.41;5014193;28;20108;-77
2021/05/02 01:54:44;;;;;;;14.65;4.28;;;;;;;23.71;43.29;98935.22;5014112;28;20022;-77
2021/05/02 01:57:10;;;;;;;13.00;4.60;;;;;;;23.91;43.01;98960.47;5014096;28;20022;-76
2021/05/02 01:59:37;;;;;;;9.32;4.07;;;;;;;23.80;42.89;98938.16;5014125;28;20030;-77
2021/05/02 02:02:05;;;;;;;13.05;3.97;;;;;;;23.89;42.66;98960.75;5015857;28;20022;-76
2021/05/02 02:04:34;;;;;;;14.60;4.93;;;;;;;23.87;42.74;98956.72;5000209;28;20022;-76
2021/05/02 02:07:00;;;;;;;17.27;5.15;;;;;;;23.87;42.73;98954.00;5017327;28;20018;-77
2021/05/02 02:09:28;;;;;;;13.88;4.88;;;;;;;23.87;42.55;98948.63;5017660;28;20053;-77
2021/05/02 02:11:54;;;;;;;11.98;4.70;;;;;;;23.49;42.52;98886.25;5017542;28;20029;-75
2021/05/02 02:14:23;;;;;;;9.35;4.20;;;;;;;23.83;42.57;98937.59;5017505;28;20022;-77
2021/05/02 02:16:49;;;;;;;11.85;4.07;;;;;;;23.54;42.62;98906.97;5017233;28;20022;-76
2021/05/02 02:19:15;;;;;;;11.38;4.38;;;;;;;23.86;42.38;98941.63;5017469;28;20391;-76
2021/05/02 02:21:42;;;;;;;12.35;4.40;;;;;;;23.44;42.30;98880.91;5017215;28;20030;-77
2021/05/02 02:24:10;;;;;;;13.98;4.38;;;;;;;23.57;42.57;98906.47;5017311;28;20101;-76
2021/05/02 02:26:57;;;;;;;15.00;4.30;;;;;;;23.75;42.51;98946.25;4999517;28;20100;-77
2021/05/02 02:29:23;;;;;;;13.88;4.15;;;;;;;23.57;42.61;98920.72;5029281;28;20022;-76
2021/05/02 02:31:50;;;;;;;15.80;4.43;;;;;;;23.53;42.78;98935.81;5001859;28;20164;-75
2021/05/02 02:34:18;;;;;;;12.18;4.18;;;;;;;23.55;42.70;98916.72;5017064;28;20356;-78
2021/05/02 02:36:44;;;;;;;11.80;4.38;;;;;;;23.73;42.66;98943.03;5016951;28;20420;-77
2021/05/02 02:39:10;;;;;;;13.63;4.43;;;;;;;23.71;42.83;98929.81;4999621;28;20040;-76
2021/05/02 02:41:39;;;;;;;14.30;4.40;;;;;;;23.70;42.90;98924.72;5016989;28;20056;-78
2021/05/02 02:44:08;;;;;;;12.48;4.28;;;;;;;23.70;42.90;98924.72;5016813;28;20029;-78
2021/05/02 02:46:40;;;;;;;15.05;5.07;;;;;;;23.43;42.85;98881.97;4999668;28;20443;-78
2021/05/02 02:49:10;;;;;;;13.90;4.53;;;;;;;23.56;43.04;98916.44;5016745;28;20026;-77
2021/05/02 02:51:37;;;;;;;13.57;4.55;;;;;;;23.51;43.24;98921.81;5016860;28;20125;-76
2021/05/02 02:54:06;;;;;;;16.02;5.18;;;;;;;23.41;43.31;98911.91;4999307;28;20115;-77
2021/05/02 02:56:33;;;;;;;13.20;4.30;;;;;;;23.50;43.30;98917.50;5016787;28;20058;-74
2021/05/02 02:59:04;;;;;;;13.65;4.47;;;;;;;23.53;43.23;98916.16;5016519;28;20491;-76
2021/05/02 03:01:29;;;;;;;12.77;4.00;;;;;;;23.11;43.02;98850.09;5016580;28;20145;-78
2021/05/02 03:03:58;;;;;;;16.52;4.90;;;;;;;23.61;42.91;98929.06;5016454;28;20116;-78
2021/05/02 03:06:27;;;;;;;13.35;3.88;;;;;;;23.62;43.05;98919.91;5016571;28;20040;-79
2021/05/02 03:08:55;;;;;;;15.40;4.75;;;;;;;23.64;42.87;98923.13;5016345;28;20033;-76
2021/05/02 03:11:21;;;;;;;14.30;4.72;;;;;;;23.64;42.90;98923.94;4999138;28;20028;-77
2021/05/02 03:13:47;;;;;;;14.98;5.03;;;;;;;23.53;42.76;98908.06;5015944;28;20045;-76
2021/05/02 03:16:17;;;;;;;13.38;4.93;;;;;;;23.67;43.02;98920.69;5016304;28;20068;-77
2021/05/02 03:19:01;;;;;;;13.68;4.68;;;;;;;23.68;43.01;98914.19;5016433;28;20034;-76
2021/05/02 03:22:05;;;;;;;13.82;4.65;;;;;;;23.53;42.86;98891.91;4998940;28;20038;-76
2021/05/02 03:24:34;;;;;;;15.18;4.88;;;;;;;23.66;43.23;98918.25;5015696;28;20034;-76
2021/05/02 03:27:12;;;;;;;14.10;4.75;;;;;;;23.61;43.04;98904.81;5015689;28;20049;-76
2021/05/02 03:29:40;;;;;;;16.58;4.57;;;;;;;23.67;42.98;98915.28;5016272;28;20028;-77
2021/05/02 03:32:11;;;;;;;15.18;5.05;;;;;;;23.70;42.80;98914.72;5015938;28;20633;-77
2021/05/02 03:34:40;;;;;;;;;;;;;;;23.59;43.07;98906.97;5016366;28;20029;-78
2021/05/02 03:37:09;;;;;;;10.63;3.78;;;;;;;23.63;42.93;98897.25;5015937;28;19909;-76
2021/05/02 03:39:35;;;;;;;15.07;4.63;;;;;;;23.59;42.69;98883.53;5016016;28;20399;-76
2021/05/02 03:42:01;;;;;;;16.50;5.13;;;;;;;23.42;42.45;98850.75;5015840;28;20037;-76
2021/05/02 03:44:26;;;;;;;19.52;4.28;;;;;;;23.73;42.32;98892.59;5015886;28;20076;-76
2021/05/02 03:46:52;;;;;;;13.80;4.18;;;;;;;23.75;42.35;98890.44;5015630;28;20029;-73
2021/05/02 03:49:17;;;;;;;13.65;4.45;;;;;;;23.78;42.18;98907.94;5015704;28;20424;-77
2021/05/02 03:51:43;;;;;;;9.43;3.97;;;;;;;23.77;42.37;98890.97;4998102;28;20029;-75
2021/05/02 03:54:08;;;;;;;17.42;4.05;;;;;;;23.82;42.21;98887.47;5015664;28;20100;-77
2021/05/02 03:56:41;;;;;;;13.80;4.63;;;;;;;23.67;42.06;98871.34;5015659;28;20052;-76
2021/05/02 03:59:16;;;;;;;11.80;4.88;;;;;;;23.87;42.03;98900.09;5015612;28;20053;-77
2021/05/02 04:01:50;;;;;;;13.32;4.22;;;;;;;23.89;42.23;98892.53;4998045;28;20029;-78
2021/05/02 04:04:18;;;;;;;14.82;4.38;;;;;;;23.70;41.97;98871.59;5015571;28;20029;-77
2021/05/02 04:06:43;;;;;;;15.85;5.13;;;;;;;23.94;42.15;98914.88;4998100;28;20054;-77
2021/05/02 04:09:10;;;;;;;11.35;4.85;;;;;;;23.96;42.15;98910.00;4997915;28;20065;-77
2021/05/02 04:11:37;;;;;;;14.05;4.50;;;;;;;23.83;42.29;98890.97;4998076;28;20026;-77
2021/05/02 04:14:05;;;;;;;16.73;4.15;;;;;;;23.88;42.20;98890.91;5022757;28;20036;-76
2021/05/02 04:16:30;;;;;;;16.52;4.70;;;;;;;23.96;42.08;98898.41;5002285;28;20072;-76
2021/05/02 04:18:56;;;;;;;14.52;3.92;;;;;;;23.96;42.17;98896.53;5015162;28;20033;-76
2021/05/02 04:21:21;;;;;;;16.75;4.85;;;;;;;23.80;42.32;98872.66;5015211;28;20398;-75
2021/05/02 04:23:47;;;;;;;17.20;4.55;;;;;;;24.02;42.33;98914.28;5014367;28;20033;-76
2021/05/02 04:26:13;;;;;;;14.20;4.70;;;;;;;23.87;42.26;98882.03;5014803;28;20325;-76
2021/05/02 04:28:39;;;;;;;16.52;5.25;;;;;;;23.79;42.35;98871.84;5015235;28;20109;-77
2021/05/02 04:31:04;;;;;;;12.90;4.53;;;;;;;24.02;42.07;98900.78;4997632;28;20033;-76
2021/05/02 04:33:30;;;;;;;12.85;4.60;;;;;;;23.91;42.37;98893.88;4997618;28;20429;-77
2021/05/02 04:35:55;;;;;;;18.23;5.05;;;;;;;23.99;42.48;98912.13;4997573;28;20112;-78
2021/05/02 04:38:20;;;;;;;19.27;6.18;;;;;;;23.98;42.60;98913.22;5014971;28;20021;-77
2021/05/02 04:40:46;;;;;;;14.27;5.05;;;;;;;23.92;42.61;98916.25;5014892;28;20490;-75
2021/05/02 04:43:11;;;;;;;14.23;4.80;;;;;;;23.99;42.86;98931.00;5014949;28;20030;-76
2021/05/02 04:45:38;;;;;;;14.43;4.95;;;;;;;24.01;43.11;98928.03;5014824;28;20161;-74
2021/05/02 04:48:05;;;;;;;14.20;5.00;;;;;;;24.01;42.82;98923.44;5014791;28;20061;-77
2021/05/02 04:50:30;;;;;;;14.57;5.15;;;;;;;23.69;43.00;98898.84;5014799;28;20055;-77
2021/05/02 04:52:59;;;;;;;15.07;5.55;;;;;;;23.96;43.11;98922.69;5014721;28;20029;-77
2021/05/02 04:55:24;;;;;;;13.23;4.65;;;;;;;23.89;43.00;98931.09;5014854;28;20105;-76
2021/05/02 04:57:50;;;;;;;16.83;4.68;;;;;;;23.69;43.17;98923.91;5014621;28;20097;-77
2021/05/02 05:00:15;;;;;;;17.20;4.68;;;;;;;23.73;43.23;98919.56;5014825;28;20051;-77
2021/05/02 05:02:41;;;;;;;14.15;4.38;;;;;;;23.64;43.58;98923.13;5014851;28;20041;-77
2021/05/02 05:05:07;;;;;;;13.55;4.55;;;;;;;23.79;43.66;98943.81;5014547;28;20026;-76
2021/05/02 05:07:32;;;;;;;14.55;4.80;;;;;;;23.62;43.65;98931.50;5014565;28;20021;-76
2021/05/02 05:09:57;;;;;;;13.52;4.47;;;;;;;23.67;43.76;98938.75;5014542;28;20037;-76
2021/05/02 05:12:23;;;;;;;12.05;4.68;;;;;;;23.77;43.74;98938.69;4997508;28;20053;-76
2021/05/02 05:14:48;;;;;;;13.00;4.47;;;;;;;23.38;43.86;98887.41;5014470;28;20019;-75
2021/05/02 05:17:13;;;;;;;13.68;4.35;;;;;;;23.69;44.06;98950.06;5014743;28;20026;-75
2021/05/02 05:19:39;;;;;;;19.60;5.65;;;;;;;23.79;44.25;98966.19;4997212;28;20018;-76
2021/05/02 05:22:05;;;;;;;18.17;5.40;;;;;;;23.83;44.04;98959.16;5014438;28;20435;-77
2021/05/02 05:24:30;;;;;;;15.68;4.68;;;;;;;23.62;44.15;98903.72;5014462;28;20105;-76
2021/05/02 05:26:55;;;;;;;15.77;5.00;;;;;;;23.57;44.31;98876.81;5014084;28;20042;-77
2021/05/02 05:29:21;;;;;;;10.30;4.45;;;;;;;23.74;44.13;98888.81;5014535;28;20025;-76
2021/05/02 05:31:46;;;;;;;15.57;4.85;;;;;;;24.02;44.32;98914.28;5014374;28;20022;-76
2021/05/02 05:34:12;;;;;;;14.52;4.72;;;;;;;24.06;44.25;98915.31;5014406;28;20021;-77
2021/05/02 05:36:37;;;;;;;15.70;4.80;;;;;;;24.03;44.27;98906.97;4999919;28;20029;-76
2021/05/02 05:39:03;;;;;;;12.75;4.93;;;;;;;23.95;44.30;98886.00;5017948;28;20022;-76
2021/05/02 05:41:28;;;;;;;11.23;4.40;;;;;;;23.98;44.31;98883.56;5018093;28;20096;-76
2021/05/02 05:43:54;;;;;;;11.50;4.68;;;;;;;24.27;44.44;98913.28;5017992;28;20018;-77
2021/05/02 05:46:19;;;;;;;13.27;4.55;;;;;;;24.09;44.44;98871.59;5017939;28;20076;-76
2021/05/02 05:48:45;;;;;;;9.15;4.35;;;;;;;24.38;44.13;98895.94;5017999;28;20196;-76
2021/05/02 05:51:10;;;;;;;16.55;4.85;;;;;;;24.42;43.99;98888.06;5017993;28;20029;-75
2021/05/02 05:53:36;;;;;;;12.50;4.40;;;;;;;24.48;43.40;98888.81;5000449;28;20026;-77
2021/05/02 05:56:02;;;;;;;11.95;3.92;;;;;;;24.58;43.45;98883.34;5017707;28;20018;-77
2021/05/02 05:58:30;;;;;;;16.55;4.88;;;;;;;24.66;43.10;98880.84;5025733;28;20483;-78
2021/05/02 06:00:56;;;;;;;10.35;4.30;;;;;;;24.75;43.00;98885.59;5022861;28;20036;-75
2021/05/02 06:03:21;;;;;;;11.20;4.50;;;;;;;24.74;42.46;98857.00;5000348;28;20053;-77
2021/05/02 06:05:47;;;;;;;13.93;4.82;;;;;;;24.92;42.65;98856.25;5017598;28;20542;-78
2021/05/02 06:08:12;;;;;;;11.20;4.00;;;;;;;24.94;42.41;98846.75;5017767;28;20022;-77
2021/05/02 06:10:37;;;;;;;10.00;3.47;;;;;;;25.02;41.88;98838.03;5017534;28;20022;-77
2021/05/02 06:13:03;;;;;;;11.50;3.67;;;;;;;24.85;41.55;98816.09;5017458;28;20017;-77
2021/05/02 06:15:28;;;;;;;14.43;4.07;;;;;;;25.27;40.87;98876.66;5017550;28;20344;-76
2021/05/02 06:17:54;;;;;;;8.68;3.30;;;;;;;25.33;40.54;98862.78;5017352;28;20020;-75
2021/05/02 06:20:19;;;;;;;16.98;4.78;;;;;;;25.40;40.66;98870.53;5000131;28;20354;-77
2021/05/02 06:22:44;;;;;;;14.25;3.92;;;;;;;25.47;40.25;98875.56;5017430;28;20022;-76
2021/05/02 06:25:11;;;;;;;12.45;4.15;;;;;;;25.53;39.77;98871.72;5017308;28;20403;-77
2021/05/02 06:27:37;;;;;;;12.55;4.35;;;;;;;25.59;38.86;98863.22;5016963;28;20077;-81
2021/05/02 06:30:06;;;;;;;11.63;3.70;;;;;;;25.69;38.82;98861.50;5016964;28;20096;-77
2021/05/02 06:32:32;;;;;;;10.18;3.63;;;;;;;25.71;38.23;98843.88;4999719;28;20435;-75
2021/05/02 06:34:58;;;;;;;9.32;3.20;;;;;;;25.82;37.87;98844.53;5017082;28;20030;-80
2021/05/02 06:37:23;;;;;;;9.95;3.63;;;;;;;25.87;38.07;98845.25;5017333;28;20025;-80
2021/05/02 06:39:49;;;;;;;13.93;4.35;;;;;;;25.93;37.99;98851.38;5017009;28;20026;-79
2021/05/02 06:42:15;;;;;;;10.80;3.50;;;;;;;25.77;37.48;98812.16;5016926;28;20026;-76
2021/05/02 06:44:40;;;;;;;11.25;3.83;;;;;;;26.03;37.57;98829.59;5017007;28;20104;-80
2021/05/02 06:47:06;;;;;;;10.55;3.75;;;;;;;25.69;37.39;98773.06;4998244;28;20428;-78
2021/05/02 06:49:32;;;;;;;12.68;4.60;;;;;;;26.23;39.01;98848.19;5016987;28;20025;-80
2021/05/02 06:51:57;;;;;;;12.25;5.13;;;;;;;26.09;41.05;98828.41;4999497;28;20105;-78
2021/05/02 06:54:23;;;;;;;9.63;5.30;;;;;;;26.24;42.14;98849.00;5023206;28;20026;-80
2021/05/02 06:56:48;;;;;;;13.02;5.47;;;;;;;26.23;43.13;98847.38;5005517;28;20032;-75
2021/05/02 06:59:14;;;;;;;16.40;6.10;;;;;;;25.77;43.63;98793.22;5019386;28;20029;-81
2021/05/02 07:01:39;;;;;;;12.93;5.60;;;;;;;26.09;43.94;98851.97;5016748;28;20022;-79
2021/05/02 07:04:05;;;;;;;14.05;5.50;;;;;;;25.37;44.15;98763.03;4999431;28;20030;-77
2021/05/02 07:06:32;;;;;;;12.95;5.55;;;;;;;26.05;44.52;98873.41;5016441;28;20053;-81
2021/05/02 07:08:57;;;;;;;14.88;5.28;;;;;;;25.59;44.96;98817.28;5016378;28;20412;-77
2021/05/02 07:11:23;;;;;;;15.60;6.05;;;;;;;25.77;45.16;98840.00;5016460;28;20030;-79
2021/05/02 07:13:48;;;;;;;15.50;4.95;;;;;;;25.65;44.88;98843.16;5016228;28;20433;-75
2021/05/02 07:16:14;;;;;;;13.90;4.90;;;;;;;25.65;44.93;98853.97;5016359;28;20025;-78
2021/05/02 07:18:40;;;;;;;16.63;5.53;;;;;;;25.59;45.00;98857.03;5016625;28;20037;-79
2021/05/02 07:21:07;;;;;;;14.25;5.57;;;;;;;25.47;45.15;98853.94;5016168;28;20416;-79
2021/05/02 07:23:37;;;;;;;20.15;6.10;;;;;;;25.38;45.75;98845.69;5016355;28;20029;-77
2021/05/02 07:26:03;;;;;;;16.25;6.28;;;;;;;24.99;45.35;98798.09;5015727;28;20072;-77
2021/05/02 07:28:28;;;;;;;15.77;5.45;;;;;;;25.50;45.43;98899.31;5016025;28;20038;-76
2021/05/02 07:30:54;;;;;;;12.95;5.32;;;;;;;25.46;45.43;98901.00;5016054;28;20360;-83
2021/05/02 07:33:22;;;;;;;11.60;5.35;;;;;;;25.06;45.52;98835.56;5016036;28;20400;-79
2021/05/02 07:35:49;;;;;;;17.40;6.93;;;;;;;25.54;45.76;98906.56;4998465;28;20026;-76
2021/05/02 07:38:14;;;;;;;12.32;5.22;;;;;;;25.54;45.77;98894.94;5018304;28;20022;-78
2021/05/02 07:40:40;;;;;;;14.98;5.50;;;;;;;25.52;45.94;98907.94;5027637;28;20030;-78
2021/05/02 07:43:05;;;;;;;19.83;6.05;;;;;;;25.53;45.66;98904.16;5015594;28;20068;-77
2021/05/02 07:45:31;;;;;;;18.38;6.03;;;;;;;25.24;45.55;98850.19;5015734;28;20022;-77
2021/05/02 07:47:56;;;;;;;16.35;5.78;;;;;;;25.55;45.36;98901.94;4998126;28;20348;-74
2021/05/02 07:50:22;;;;;;;14.38;6.03;;;;;;;25.39;45.28;98870.81;5015754;28;20109;-76
2021/05/02 07:52:47;;;;;;;18.10;5.93;;;;;;;25.57;45.33;98905.16;5015560;28;20055;-77
2021/05/02 07:55:13;;;;;;;14.48;5.03;;;;;;;25.26;45.21;98826.38;5015736;28;20033;-77
2021/05/02 07:57:38;;;;;;;14.05;5.70;;;;;;;25.27;45.13;98825.31;4998170;28;20037;-75
2021/05/02 08:00:05;;;;;;;12.70;5.13;;;;;;;25.76;45.08;98908.72;5015389;28;20033;-77
2021/05/02 08:02:31;;;;;;;16.00;5.15;;;;;;;25.74;45.20;98883.84;5015511;28;20080;-73
2021/05/02 08:04:56;;;;;;;16.73;5.53;;;;;;;25.80;45.31;98908.91;4997898;28;20030;-77
2021/05/02 08:07:22;;;;;;;15.20;5.57;;;;;;;25.60;45.47;98877.56;4998048;28;20058;-77
2021/05/02 08:09:47;;;;;;;16.52;4.43;;;;;;;25.89;44.93;98910.66;5015292;28;20026;-77
2021/05/02 08:12:13;;;;;;;12.95;5.53;;;;;;;25.98;44.74;98895.38;5015449;28;20110;-75
2021/05/02 08:14:38;;;;;;;12.13;4.97;;;;;;;26.06;44.29;98885.00;4997874;28;20024;-76
2021/05/02 08:17:04;;;;;;;19.38;5.95;;;;;;;26.13;44.00;98875.41;5015203;28;20021;-76
2021/05/02 08:19:30;;;;;;;16.85;4.90;;;;;;;26.10;43.67;98831.91;5015302;28;20029;-77
2021/05/02 08:21:55;;;;;;;12.93;4.82;;;;;;;26.43;43.21;98871.41;5015288;28;20040;-78
2021/05/02 08:24:21;;;;;;;16.40;5.97;;;;;;;26.58;42.72;98870.31;4997929;28;20114;-76
2021/05/02 08:26:47;;;;;;;14.55;5.00;;;;;;;26.73;42.83;98853.78;5014859;28;20046;-76
2021/05/02 08:29:12;;;;;;;14.10;4.50;;;;;;;26.83;42.30;98859.03;5014920;28;20036;-77
2021/05/02 08:31:39;;;;;;;15.75;5.90;;;;;;;27.04;42.07;98856.75;5014972;28;20049;-75
2021/05/02 08:34:04;;;;;;;15.88;5.30;;;;;;;26.99;41.63;98813.50;5014896;28;20026;-75
2021/05/02 08:36:30;;;;;;;13.93;5.00;;;;;;;27.34;41.37;98849.06;5014988;28;20340;-77
2021/05/02 08:38:56;;;;;;;13.43;5.72;;;;;;;27.33;41.20;98840.13;5014904;28;20040;-76
2021/05/02 08:41:22;;;;;;;15.55;5.97;;;;;;;26.87;40.98;98764.41;5014910;28;20022;-77
2021/05/02 08:43:53;;;;;;;17.02;4.95;;;;;;;27.25;40.47;98805.63;5015018;28;20037;-77
2021/05/02 08:46:18;;;;;;;12.85;4.97;;;;;;;27.33;40.62;98795.94;5014861;28;20080;-77
2021/05/02 08:48:44;;;;;;;13.02;5.18;;;;;;;27.67;40.46;98852.44;4997558;28;20025;-77
2021/05/02 08:51:10;;;;;;;13.15;5.05;;;;;;;27.51;39.90;98827.56;5014960;28;20449;-76
2021/05/02 08:53:35;;;;;;;13.60;5.25;;;;;;;27.45;40.26;98796.22;5014905;28;20407;-78
2021/05/02 08:56:02;;;;;;;17.33;5.53;;;;;;;27.96;39.46;98849.28;5014719;28;20498;-77
2021/05/02 08:58:28;;;;;;;14.27;5.13;;;;;;;27.58;39.26;98779.13;4997374;28;20068;-76
2021/05/02 09:00:56;;;;;;;9.77;4.97;;;;;;;28.13;39.02;98825.78;5014561;28;20065;-76
2021/05/02 09:03:36;;;;;;;15.10;4.78;;;;;;;28.47;38.38;98835.25;4997368;28;20029;-77
2021/05/02 09:06:12;;;;;;;17.38;4.70;;;;;;;28.79;37.66;98853.94;5014641;28;20044;-77
2021/05/02 09:08:38;;;;;;;16.75;5.55;;;;;;;28.70;37.35;98793.31;5014797;28;20029;-77
2021/05/02 09:11:03;;;;;;;15.52;5.05;;;;;;;29.17;37.42;98841.75;4999230;28;20352;-77
2021/05/02 09:13:30;;;;;;;14.88;5.32;;;;;;;29.16;36.72;98818.41;5001360;28;20416;-77
2021/05/02 09:16:03;;;;;;;13.52;4.97;;;;;;;29.49;36.55;98852.22;5018549;28;20029;-77
2021/05/02 09:18:39;;;;;;;14.70;4.85;;;;;;;29.67;36.20;98850.31;5025395;28;20030;-77
2021/05/02 09:21:13;;;;;;;12.20;5.20;;;;;;;29.39;35.77;98801.63;5025088;28;20119;-77
2021/05/02 09:23:41;;;;;;;15.18;5.13;;;;;;;29.73;35.11;98844.41;5018713;28;20029;-76
2021/05/02 09:26:16;;;;;;;13.07;4.28;;;;;;;29.94;35.45;98863.59;5017965;28;20041;-77
2021/05/02 09:29:05;;;;;;;12.38;4.18;;;;;;;30.16;34.84;98870.00;5018529;28;20042;-77
2021/05/02 09:31:34;;;;;;;15.30;4.82;;;;;;;30.41;34.78;98885.47;5018363;28;20044;-77
2021/05/02 09:34:11;;;;;;;17.63;6.30;;;;;;;30.46;34.13;98890.75;5018146;28;20425;-76
2021/05/02 09:37:03;;;;;;;13.65;4.93;;;;;;;30.27;34.06;98863.09;5018157;28;20018;-75
2021/05/02 09:39:39;;;;;;;;;;;;;;;30.21;33.13;98873.34;5001481;28;20366;-78
2021/05/02 09:42:07;;;;;;;17.13;4.95;;;;;;;30.10;33.94;98882.97;5017992;28;19916;-76
2021/05/02 09:44:51;;;;;;;14.90;4.55;;;;;;;29.83;34.26;98886.03;5018037;28;20033;-80
2021/05/02 09:47:34;;;;;;;15.80;4.20;;;;;;;29.57;34.50;98889.50;5000525;28;20033;-78
2021/05/02 09:50:18;;;;;;;12.15;4.50;;;;;;;29.31;34.67;98894.88;5017858;28;20091;-79
2021/05/02 09:53:02;;;;;;;13.07;4.30;;;;;;;29.12;35.33;98897.09;5017950;28;20033;-76
2021/05/02 09:55:33;;;;;;;14.73;5.28;;;;;;;28.96;36.08;98891.25;5017811;28;20030;-78
2021/05/02 09:58:03;;;;;;;;;;;;;;;28.73;37.30;98916.88;5018202;28;20022;-77
2021/05/02 10:00:50;;;;;;;14.52;4.40;;;;;;;28.59;37.35;98916.97;5017777;28;19955;-80
2021/05/02 10:03:21;;;;;;;13.32;4.18;;;;;;;28.29;37.58;98890.59;5017696;28;20034;-79
2021/05/02 10:05:58;;;;;;;14.02;4.13;;;;;;;28.40;37.74;98922.59;5000190;28;20061;-77
2021/05/02 10:08:28;;;;;;;9.77;3.85;;;;;;;28.37;37.67;98922.44;5000361;28;20329;-78
2021/05/02 10:10:56;;;;;;;12.57;4.40;;;;;;;28.29;37.97;98913.13;5017681;28;20053;-77
2021/05/02 10:13:22;;;;;;;13.38;4.45;;;;;;;28.26;38.41;98916.44;5000244;28;20068;-78
2021/05/02 10:15:47;;;;;;;12.85;4.78;;;;;;;28.13;38.58;98909.13;5017609;28;20088;-78
2021/05/02 10:18:13;;;;;;;11.98;4.32;;;;;;;28.18;38.83;98923.38;5000008;28;20025;-79
2021/05/02 10:20:43;;;;;;;13.10;4.30;;;;;;;28.12;38.67;98904.81;4999972;28;20108;-75
2021/05/02 10:23:08;;;;;;;13.95;4.35;;;;;;;27.89;38.86;98860.59;5016378;28;20038;-76
2021/05/02 10:25:37;;;;;;;11.63;4.63;;;;;;;27.72;39.05;98826.00;4999796;28;20088;-75
2021/05/02 10:28:02;;;;;;;14.90;5.68;;;;;;;28.11;38.77;98859.78;5017015;28;20080;-76
2021/05/02 10:30:29;;;;;;;15.68;4.90;;;;;;;27.80;38.74;98792.69;4999969;28;20347;-81
2021/05/02 10:33:08;;;;;;;14.75;4.65;;;;;;;28.32;38.78;98865.53;4999730;28;20116;-79
2021/05/02 10:35:46;;;;;;;15.60;4.68;;;;;;;28.38;38.92;98858.88;4999809;28;20025;-76
2021/05/02 10:38:14;;;;;;;14.82;4.60;;;;;;;28.22;38.98;98844.03;5017009;28;20034;-77
2021/05/02 10:40:40;;;;;;;15.55;5.47;;;;;;;28.41;38.90;98860.97;5017211;28;20080;-77
2021/05/02 10:43:10;;;;;;;13.15;4.80;;;;;;;28.42;38.70;98863.34;5017007;28;20046;-77
2021/05/02 10:45:41;;;;;;;14.35;4.63;;;;;;;28.42;38.32;98882.38;5016943;28;20408;-75
2021/05/02 10:48:08;;;;;;;;;;;;;;;28.28;38.15;98868.06;5017073;28;20036;-77
2021/05/02 10:50:45;;;;;;;11.63;4.28;;;;;;;28.29;38.25;98853.38;5016846;28;20243;-76
2021/05/02 10:53:16;;;;;;;10.20;4.13;;;;;;;28.29;38.44;98844.44;5016759;28;20030;-78
2021/05/02 10:55:57;;;;;;;14.18;4.45;;;;;;;28.27;39.19;98847.47;4999847;28;20407;-77
2021/05/02 10:58:28;;;;;;;13.38;4.00;;;;;;;28.32;39.23;98847.34;5030662;28;20036;-76
2021/05/02 11:00:59;;;;;;;11.43;4.22;;;;;;;28.41;39.55;98831.09;5016632;28;20376;-77
2021/05/02 11:03:40;;;;;;;;;;;;;;;28.38;39.92;98839.84;5017326;28;20052;-77
2021/05/02 11:06:12;;;;;;;8.48;4.10;;;;;;;28.46;39.43;98831.75;5016458;28;20255;-77
2021/05/02 11:08:52;;;;;;;13.43;4.70;;;;;;;28.54;39.45;98832.91;4999216;28;20034;-77
2021/05/02 11:11:39;;;;;;;12.93;4.72;;;;;;;28.61;39.67;98846.81;5016839;28;20049;-77
2021/05/02 11:16:37;;;;;;;14.15;4.75;;;;;;;28.88;38.73;98840.41;5016409;28;20391;-77
2021/05/02 11:19:04;;;;;;;14.55;4.47;;;;;;;28.93;38.24;98840.25;5016297;28;20036;-77
2021/05/02 11:21:48;;;;;;;15.50;5.03;;;;;;;28.98;37.79;98831.16;4998928;28;20041;-76
2021/05/02 11:24:17;;;;;;;8.98;4.28;;;;;;;28.96;37.60;98817.88;4998793;28;20391;-78
2021/05/02 11:29:46;;;;;;;12.45;4.40;;;;;;;29.30;37.18;98819.88;5016227;28;20040;-77
2021/05/02 11:32:12;;;;;;;14.82;4.85;;;;;;;29.38;37.07;98819.06;4998601;28;20056;-77
2021/05/02 11:34:52;;;;;;;14.77;4.53;;;;;;;29.51;37.12;98811.09;5015725;28;20029;-77
2021/05/02 11:37:36;;;;;;;11.40;4.57;;;;;;;30.06;37.28;98829.50;5016012;28;20412;-77